Time;durP1;ratioP1;P1;durP2;ratioP2;P2;SDS_P1;SDS_P2;PMS_P1;PMS_P2;Temp;Humidity;BMP_temperature;BMP_pressure;BME280_temperature;BME280_humidity;BME280_pressure;Samples;Min_cycle;Max_cycle;Signal;HPM_P1;HPM_P2
2023/12/14 00:02:13;;;;;;;38.42;22.38;;;;;;;;;;5004303;28;20550;-77
2023/12/14 00:04:39;;;;;;;35.95;21.05;;;;;;;;;;5006492;28;20105;-77
2023/12/14 00:07:06;;;;;;;36.42;21.27;;;;;;;;;;5009864;28;20034;-77
2023/12/14 00:09:32;;;;;;;29.65;19.23;;;;;;;;;;5024650;28;20045;-76
2023/12/14 00:11:58;;;;;;;30.35;19.15;;;;;;;;;;5010062;28;20048;-76
2023/12/14 00:14:25;;;;;;;32.92;19.13;;;;;;;;;;5010359;28;21055;-77
2023/12/14 00:16:51;;;;;;;26.73;18.73;;;;;;;;;;5009897;28;20057;-76
2023/12/14 00:19:18;;;;;;;29.35;19.65;;;;;;;;;;5010192;28;20049;-76
2023/12/14 00:21:44;;;;;;;29.00;19.65;;;;;;;;;;5008290;28;20543;-76
2023/12/14 00:24:10;;;;;;;34.55;20.20;;;;;;;;;;5024888;28;20137;-76
2023/12/14 00:26:37;;;;;;;30.75;19.88;;;;;;;;;;5009822;28;20110;-77
2023/12/14 00:29:03;;;;;;;33.15;21.85;;;;;;;;;;5025122;28;20068;-77
2023/12/14 00:31:29;;;;;;;34.22;21.75;;;;;;;;;;5010054;28;20199;-74
2023/12/14 00:33:55;;;;;;;36.03;22.20;;;;;;;;;;5006864;28;20104;-76
2023/12/14 00:36:22;;;;;;;33.00;21.30;;;;;;;;;;5025105;28;20034;-76
2023/12/14 00:38:48;;;;;;;35.88;21.13;;;;;;;;;;5006835;28;20041;-74
2023/12/14 00:41:14;;;;;;;33.65;21.38;;;;;;;;;;5008229;28;20101;-77
2023/12/14 00:43:41;;;;;;;37.20;21.00;;;;;;;;;;5007437;28;20057;-77
2023/12/14 00:46:07;;;;;;;35.55;22.90;;;;;;;;;;5011004;28;20026;-77
2023/12/14 00:48:34;;;;;;;35.20;20.80;;;;;;;;;;5008499;28;20053;-76
2023/12/14 00:51:00;;;;;;;34.33;21.38;;;;;;;;;;5005758;28;20049;-76
2023/12/14 00:53:26;;;;;;;34.55;21.48;;;;;;;;;;5004967;28;20467;-77
2023/12/14 00:55:52;;;;;;;33.95;19.90;;;;;;;;;;4999803;28;20395;-76
2023/12/14 00:58:19;;;;;;;36.05;22.33;;;;;;;;;;5001581;28;20558;-77
2023/12/14 01:00:45;;;;;;;34.50;21.60;;;;;;;;;;5004208;28;20590;-77
2023/12/14 01:03:11;;;;;;;34.53;21.40;;;;;;;;;;5001947;28;20030;-77
2023/12/14 01:05:38;;;;;;;35.58;22.27;;;;;;;;;;5004779;28;20026;-76
2023/12/14 01:08:04;;;;;;;38.00;22.05;;;;;;;;;;4997852;28;20514;-76
2023/12/14 01:10:30;;;;;;;37.75;22.80;;;;;;;;;;5003439;28;20067;-76
2023/12/14 01:12:56;;;;;;;33.83;22.33;;;;;;;;;;5005122;28;20061;-77
2023/12/14 01:15:22;;;;;;;38.90;21.38;;;;;;;;;;5001725;28;20088;-77
2023/12/14 01:17:48;;;;;;;33.28;20.98;;;;;;;;;;4998120;28;20030;-76
2023/12/14 01:20:14;;;;;;;33.90;21.75;;;;;;;;;;5002637;28;20034;-77
2023/12/14 01:22:42;;;;;;;32.05;19.40;;;;;;;;;;5003252;28;20061;-76
2023/12/14 01:25:08;;;;;;;34.63;21.38;;;;;;;;;;5010227;28;20088;-77
2023/12/14 01:27:34;;;;;;;31.73;20.02;;;;;;;;;;5008979;28;20099;-78
2023/12/14 01:30:00;;;;;;;33.92;20.67;;;;;;;;;;5002642;28;20080;-76
2023/12/14 01:32:26;;;;;;;32.15;20.05;;;;;;;;;;5002974;28;20088;-75
2023/12/14 01:34:55;;;;;;;35.15;21.48;;;;;;;;;;5025388;28;20044;-76
2023/12/14 01:37:21;;;;;;;32.15;20.80;;;;;;;;;;5010694;28;20042;-75
2023/12/14 01:39:47;;;;;;;30.35;19.48;;;;;;;;;;5005892;28;20092;-76
2023/12/14 01:42:14;;;;;;;35.92;20.95;;;;;;;;;;5008244;28;20351;-78
2023/12/14 01:44:40;;;;;;;32.45;20.52;;;;;;;;;;5009936;28;20756;-75
2023/12/14 01:47:06;;;;;;;31.38;19.80;;;;;;;;;;5007752;28;20068;-75
2023/12/14 01:49:32;;;;;;;33.15;19.85;;;;;;;;;;5001744;28;20536;-76
2023/12/14 01:51:58;;;;;;;35.53;21.02;;;;;;;;;;5007805;28;20514;-75
2023/12/14 01:54:25;;;;;;;33.15;20.90;;;;;;;;;;5029401;28;20033;-76
2023/12/14 01:56:51;;;;;;;33.38;21.02;;;;;;;;;;5028650;28;20037;-77
2023/12/14 01:59:17;;;;;;;39.53;22.45;;;;;;;;;;5025823;28;20542;-75
2023/12/14 02:01:45;;;;;;;34.40;21.02;;;;;;;;;;5009537;28;20040;-76
2023/12/14 02:04:11;;;;;;;41.28;21.83;;;;;;;;;;5008534;28;20040;-76
2023/12/14 02:06:37;;;;;;;41.17;24.55;;;;;;;;;;5029105;28;20383;-76
2023/12/14 02:09:04;;;;;;;38.83;22.08;;;;;;;;;;5025414;28;20463;-77
2023/12/14 02:11:31;;;;;;;40.70;23.33;;;;;;;;;;5023513;28;20090;-76
2023/12/14 02:13:57;;;;;;;39.95;23.13;;;;;;;;;;5011092;28;20392;-77
2023/12/14 02:16:23;;;;;;;42.47;22.23;;;;;;;;;;5028965;28;20035;-77
2023/12/14 02:18:50;;;;;;;42.40;24.52;;;;;;;;;;5027315;28;20042;-76
2023/12/14 02:21:16;;;;;;;41.20;23.55;;;;;;;;;;5026900;28;20041;-76
2023/12/14 02:23:45;;;;;;;49.45;25.00;;;;;;;;;;5015315;28;20029;-77
2023/12/14 02:26:12;;;;;;;41.92;22.77;;;;;;;;;;5027563;28;20030;-77
2023/12/14 02:28:38;;;;;;;42.58;23.98;;;;;;;;;;5026963;28;20120;-76
2023/12/14 02:31:04;;;;;;;41.90;22.35;;;;;;;;;;5028072;28;20029;-76
2023/12/14 02:33:31;;;;;;;37.92;22.17;;;;;;;;;;5027853;28;20044;-76
2023/12/14 02:35:57;;;;;;;44.88;24.15;;;;;;;;;;5028641;28;20378;-76
2023/12/14 02:38:24;;;;;;;42.05;23.73;;;;;;;;;;5028853;28;20044;-77
2023/12/14 02:40:52;;;;;;;39.15;22.20;;;;;;;;;;5025751;28;20041;-76
2023/12/14 02:43:19;;;;;;;47.95;22.95;;;;;;;;;;5026477;28;20034;-77
2023/12/14 02:45:45;;;;;;;43.60;22.92;;;;;;;;;;5026862;28;20038;-75
2023/12/14 02:48:12;;;;;;;40.78;21.75;;;;;;;;;;5028211;28;20025;-78
2023/12/14 02:50:38;;;;;;;44.97;24.08;;;;;;;;;;5026817;28;20048;-77
2023/12/14 02:53:04;;;;;;;45.28;23.63;;;;;;;;;;5012141;28;20140;-76
2023/12/14 02:55:31;;;;;;;48.30;23.60;;;;;;;;;;5027052;28;20069;-78
2023/12/14 02:57:57;;;;;;;40.45;22.00;;;;;;;;;;5029379;28;20041;-76
2023/12/14 03:00:23;;;;;;;48.22;23.77;;;;;;;;;;5028394;28;20022;-76
2023/12/14 03:02:49;;;;;;;46.20;23.13;;;;;;;;;;5026183;28;20442;-76
2023/12/14 03:05:15;;;;;;;40.00;22.13;;;;;;;;;;5028735;28;20033;-74
2023/12/14 03:07:41;;;;;;;47.58;23.23;;;;;;;;;;5029647;28;20045;-75
2023/12/14 03:10:08;;;;;;;46.50;22.73;;;;;;;;;;5026972;28;20036;-76
2023/12/14 03:12:34;;;;;;;42.55;23.15;;;;;;;;;;5009211;28;20052;-76
2023/12/14 03:15:00;;;;;;;45.95;23.25;;;;;;;;;;5026363;28;20047;-76
2023/12/14 03:17:26;;;;;;;43.63;22.05;;;;;;;;;;5022713;28;20475;-77
2023/12/14 03:19:53;;;;;;;42.67;20.80;;;;;;;;;;5009471;28;20184;-75
2023/12/14 03:22:19;;;;;;;49.53;21.23;;;;;;;;;;5025166;28;20045;-76
2023/12/14 03:24:46;;;;;;;37.63;20.08;;;;;;;;;;5026451;28;20061;-76
2023/12/14 03:27:12;;;;;;;35.67;19.80;;;;;;;;;;5010752;28;20029;-78
2023/12/14 03:29:38;;;;;;;38.60;19.23;;;;;;;;;;5026900;28;20045;-76
2023/12/14 03:32:04;;;;;;;38.22;18.65;;;;;;;;;;5027543;28;20025;-76
2023/12/14 03:34:30;;;;;;;34.72;17.15;;;;;;;;;;5027464;28;20033;-76
2023/12/14 03:36:57;;;;;;;37.33;16.67;;;;;;;;;;5028069;28;20033;-76
2023/12/14 03:39:24;;;;;;;38.00;17.25;;;;;;;;;;5009228;28;20495;-77
2023/12/14 03:41:50;;;;;;;36.35;16.65;;;;;;;;;;5012830;28;20083;-76
2023/12/14 03:44:16;;;;;;;34.05;17.40;;;;;;;;;;5031683;28;20044;-77
2023/12/14 03:46:42;;;;;;;32.60;16.70;;;;;;;;;;5013763;28;20025;-76
2023/12/14 03:49:08;;;;;;;31.63;16.17;;;;;;;;;;5029149;28;20111;-76
2023/12/14 03:51:36;;;;;;;34.47;16.35;;;;;;;;;;5012048;28;20061;-76
2023/12/14 03:54:02;;;;;;;31.27;15.43;;;;;;;;;;5021494;28;20030;-77
2023/12/14 03:56:28;;;;;;;28.75;15.50;;;;;;;;;;5031339;28;20037;-76
2023/12/14 03:58:57;;;;;;;34.50;16.10;;;;;;;;;;5027492;28;20095;-77
2023/12/14 04:01:23;;;;;;;30.10;14.57;;;;;;;;;;5013442;28;20033;-76
2023/12/14 04:03:49;;;;;;;26.27;15.27;;;;;;;;;;5020679;28;20030;-76
2023/12/14 04:06:16;;;;;;;28.48;14.50;;;;;;;;;;5028460;28;20120;-76
2023/12/14 04:08:42;;;;;;;26.02;13.55;;;;;;;;;;5031783;28;20394;-78
2023/12/14 04:11:10;;;;;;;25.73;14.23;;;;;;;;;;5011596;28;20117;-76
2023/12/14 04:13:36;;;;;;;28.13;14.43;;;;;;;;;;5027027;28;20037;-76
2023/12/14 04:16:03;;;;;;;24.15;13.38;;;;;;;;;;5029947;28;20560;-77
2023/12/14 04:18:30;;;;;;;27.67;12.95;;;;;;;;;;5031609;28;20025;-77
2023/12/14 04:20:56;;;;;;;23.98;12.27;;;;;;;;;;5028839;28;20024;-76
2023/12/14 04:23:23;;;;;;;23.02;12.63;;;;;;;;;;5030860;28;20030;-76
2023/12/14 04:25:49;;;;;;;24.98;11.85;;;;;;;;;;5022582;28;20061;-76
2023/12/14 04:28:15;;;;;;;21.38;11.38;;;;;;;;;;5030688;28;20025;-76
2023/12/14 04:30:41;;;;;;;22.98;12.80;;;;;;;;;;5026012;28;20026;-76
2023/12/14 04:33:08;;;;;;;22.95;11.60;;;;;;;;;;5007526;28;20034;-77
2023/12/14 04:35:36;;;;;;;21.02;11.35;;;;;;;;;;5027718;28;20097;-75
2023/12/14 04:38:02;;;;;;;21.55;11.25;;;;;;;;;;5029458;28;20494;-76
2023/12/14 04:40:28;;;;;;;19.25;12.23;;;;;;;;;;5029286;28;20052;-76
2023/12/14 04:42:54;;;;;;;21.52;11.30;;;;;;;;;;5031418;28;20079;-77
2023/12/14 04:45:21;;;;;;;22.00;12.32;;;;;;;;;;5029727;28;20569;-77
2023/12/14 04:47:47;;;;;;;20.92;13.80;;;;;;;;;;5013679;28;20022;-76
2023/12/14 04:50:13;;;;;;;20.05;12.10;;;;;;;;;;5011637;28;20118;-76
2023/12/14 04:52:39;;;;;;;23.90;13.85;;;;;;;;;;5023990;28;20054;-76
2023/12/14 04:55:05;;;;;;;23.95;13.98;;;;;;;;;;5025477;28;20042;-76
2023/12/14 04:57:32;;;;;;;26.23;14.50;;;;;;;;;;5011034;28;20229;-76
2023/12/14 04:59:58;;;;;;;24.55;14.40;;;;;;;;;;5009708;28;20034;-76
2023/12/14 05:02:24;;;;;;;20.58;13.95;;;;;;;;;;5009595;28;20030;-76
2023/12/14 05:04:50;;;;;;;25.05;14.27;;;;;;;;;;5025799;28;20025;-76
2023/12/14 05:07:17;;;;;;;21.35;14.25;;;;;;;;;;5009569;28;20096;-77
2023/12/14 05:09:43;;;;;;;20.55;13.93;;;;;;;;;;4992615;28;20515;-77
2023/12/14 05:12:09;;;;;;;22.52;13.80;;;;;;;;;;5009764;28;20164;-77
2023/12/14 05:14:35;;;;;;;21.05;12.52;;;;;;;;;;5011469;28;20427;-77
2023/12/14 05:17:01;;;;;;;25.13;13.48;;;;;;;;;;5010410;28;20499;-76
2023/12/14 05:19:27;;;;;;;23.65;13.43;;;;;;;;;;5009136;28;20430;-77
2023/12/14 05:21:54;;;;;;;23.90;13.73;;;;;;;;;;5019308;28;20483;-76
2023/12/14 05:24:20;;;;;;;20.60;12.43;;;;;;;;;;5011296;28;20088;-77
2023/12/14 05:26:47;;;;;;;22.05;13.05;;;;;;;;;;5008535;28;20431;-76
2023/12/14 05:29:13;;;;;;;19.63;12.70;;;;;;;;;;5024015;28;20421;-76
2023/12/14 05:31:39;;;;;;;20.17;13.05;;;;;;;;;;5007897;28;20041;-77
2023/12/14 05:34:05;;;;;;;17.27;11.35;;;;;;;;;;5007709;28;20045;-77
2023/12/14 05:36:31;;;;;;;16.67;11.00;;;;;;;;;;5010117;28;20026;-78
2023/12/14 05:38:57;;;;;;;15.57;10.60;;;;;;;;;;5007151;28;20066;-76
2023/12/14 05:41:23;;;;;;;14.98;9.90;;;;;;;;;;5004723;28;20037;-76
2023/12/14 05:43:50;;;;;;;15.65;10.10;;;;;;;;;;5007531;28;20034;-76
2023/12/14 05:46:22;;;;;;;19.63;10.45;;;;;;;;;;5007301;28;20124;-76
2023/12/14 05:48:49;;;;;;;17.45;10.13;;;;;;;;;;5006570;28;20064;-75
2023/12/14 05:51:26;;;;;;;14.32;10.07;;;;;;;;;;5006262;28;20053;-78
2023/12/14 05:53:52;;;;;;;20.58;10.48;;;;;;;;;;5024120;28;20033;-77
2023/12/14 05:56:18;;;;;;;14.60;10.48;;;;;;;;;;5028381;28;20042;-76
2023/12/14 05:58:45;;;;;;;17.10;10.68;;;;;;;;;;5028933;28;20045;-76
2023/12/14 06:01:11;;;;;;;17.63;10.88;;;;;;;;;;5027667;28;20025;-77
2023/12/14 06:03:37;;;;;;;18.40;11.05;;;;;;;;;;5022263;28;20025;-78
2023/12/14 06:06:03;;;;;;;19.77;12.38;;;;;;;;;;5005587;28;20037;-76
2023/12/14 06:08:31;;;;;;;17.83;12.20;;;;;;;;;;5008348;28;20118;-77
2023/12/14 06:10:57;;;;;;;22.15;13.50;;;;;;;;;;5029120;28;20047;-76
2023/12/14 06:13:23;;;;;;;24.77;13.13;;;;;;;;;;5013044;28;20033;-77
2023/12/14 06:15:49;;;;;;;21.38;13.82;;;;;;;;;;5028681;28;20037;-78
2023/12/14 06:18:16;;;;;;;25.02;14.05;;;;;;;;;;5039046;28;20413;-76
2023/12/14 06:20:42;;;;;;;22.20;13.02;;;;;;;;;;5033670;28;20614;-76
2023/12/14 06:23:08;;;;;;;24.08;13.88;;;;;;;;;;5012118;28;20033;-77
2023/12/14 06:25:34;;;;;;;26.25;14.13;;;;;;;;;;5027283;28;20051;-76
2023/12/14 06:28:02;;;;;;;23.38;14.45;;;;;;;;;;4988644;28;20030;-77
2023/12/14 06:30:29;;;;;;;21.25;14.10;;;;;;;;;;5023439;28;20077;-77
2023/12/14 06:32:55;;;;;;;21.92;13.43;;;;;;;;;;5030246;28;20053;-77
2023/12/14 06:35:25;;;;;;;22.80;14.07;;;;;;;;;;5029472;28;20041;-77
2023/12/14 06:37:51;;;;;;;24.95;14.23;;;;;;;;;;5025252;28;20244;-76
2023/12/14 06:40:17;;;;;;;19.90;12.88;;;;;;;;;;5010711;28;20079;-77
2023/12/14 06:42:43;;;;;;;21.23;12.55;;;;;;;;;;5029331;28;20056;-77
2023/12/14 06:45:10;;;;;;;19.27;11.88;;;;;;;;;;5009971;28;20040;-76
2023/12/14 06:47:43;;;;;;;18.10;12.05;;;;;;;;;;5033338;28;20046;-76
2023/12/14 06:50:09;;;;;;;20.27;11.70;;;;;;;;;;5028637;28;20068;-77
2023/12/14 06:52:36;;;;;;;18.48;11.98;;;;;;;;;;5026717;28;20033;-77
2023/12/14 06:55:02;;;;;;;20.25;11.45;;;;;;;;;;5029964;28;20034;-76
2023/12/14 06:57:29;;;;;;;21.48;12.35;;;;;;;;;;5027314;28;20036;-77
2023/12/14 06:59:55;;;;;;;17.08;10.98;;;;;;;;;;5024750;28;20128;-77
2023/12/14 07:02:21;;;;;;;15.70;11.20;;;;;;;;;;5028447;28;20038;-76
2023/12/14 07:04:47;;;;;;;19.45;11.35;;;;;;;;;;5011427;28;20025;-77
2023/12/14 07:07:13;;;;;;;17.48;11.43;;;;;;;;;;5028966;28;20033;-79
2023/12/14 07:09:39;;;;;;;17.27;10.73;;;;;;;;;;5011119;28;20052;-76
2023/12/14 07:12:06;;;;;;;15.75;10.07;;;;;;;;;;5028448;28;20449;-77
2023/12/14 07:14:32;;;;;;;16.00;10.43;;;;;;;;;;5027872;28;20052;-77
2023/12/14 07:16:58;;;;;;;17.15;11.18;;;;;;;;;;5023730;28;20775;-77
2023/12/14 07:19:24;;;;;;;18.35;10.82;;;;;;;;;;5028177;28;20049;-77
2023/12/14 07:21:50;;;;;;;15.88;11.60;;;;;;;;;;5007986;28;20030;-77
2023/12/14 07:24:16;;;;;;;18.50;11.50;;;;;;;;;;5022869;28;20025;-77
2023/12/14 07:26:43;;;;;;;18.25;11.45;;;;;;;;;;5028999;28;20159;-77
2023/12/14 07:29:09;;;;;;;15.50;10.57;;;;;;;;;;5022874;28;20048;-76
2023/12/14 07:31:35;;;;;;;17.35;11.32;;;;;;;;;;5023204;28;20056;-77
2023/12/14 07:34:01;;;;;;;14.95;10.77;;;;;;;;;;5008303;28;20055;-77
2023/12/14 07:36:28;;;;;;;15.38;11.20;;;;;;;;;;5029462;28;20030;-77
2023/12/14 07:38:54;;;;;;;17.17;12.13;;;;;;;;;;5037745;28;20087;-78
2023/12/14 07:41:23;;;;;;;15.60;11.32;;;;;;;;;;5019491;28;20745;-79
2023/12/14 07:43:49;;;;;;;14.38;11.18;;;;;;;;;;5028909;28;20113;-76
2023/12/14 07:46:15;;;;;;;16.00;11.60;;;;;;;;;;5027891;28;20184;-77
2023/12/14 07:48:41;;;;;;;17.13;11.63;;;;;;;;;;5030593;28;20021;-76
2023/12/14 07:51:08;;;;;;;19.63;12.43;;;;;;;;;;5030472;28;20107;-77
2023/12/14 07:53:35;;;;;;;18.80;12.30;;;;;;;;;;5027913;28;20049;-77
2023/12/14 07:56:02;;;;;;;19.23;11.80;;;;;;;;;;5031948;28;20104;-77
2023/12/14 07:58:28;;;;;;;19.75;12.40;;;;;;;;;;5027797;28;20099;-77
2023/12/14 08:00:54;;;;;;;16.17;12.50;;;;;;;;;;5037340;28;20029;-77
2023/12/14 08:03:21;;;;;;;20.98;12.52;;;;;;;;;;5029026;28;20029;-77
2023/12/14 08:05:47;;;;;;;19.52;13.27;;;;;;;;;;5027978;28;20025;-77
2023/12/14 08:08:13;;;;;;;20.85;13.02;;;;;;;;;;5028438;28;20037;-78
2023/12/14 08:10:39;;;;;;;20.58;13.27;;;;;;;;;;5028052;28;20038;-79
2023/12/14 08:13:05;;;;;;;19.95;12.27;;;;;;;;;;5014831;28;20032;-78
2023/12/14 08:15:31;;;;;;;21.35;12.60;;;;;;;;;;5009210;28;20030;-79
2023/12/14 08:17:58;;;;;;;17.75;11.65;;;;;;;;;;5025288;28;20036;-77
2023/12/14 08:20:24;;;;;;;18.80;11.90;;;;;;;;;;5024911;28;20498;-76
2023/12/14 08:22:50;;;;;;;16.92;11.85;;;;;;;;;;5027688;28;20060;-77
2023/12/14 08:25:17;;;;;;;18.58;12.38;;;;;;;;;;5028597;28;20033;-76
2023/12/14 08:27:43;;;;;;;20.52;12.95;;;;;;;;;;5031518;28;20512;-78
2023/12/14 08:30:11;;;;;;;14.98;11.15;;;;;;;;;;5030215;28;20049;-77
2023/12/14 08:32:37;;;;;;;18.58;12.23;;;;;;;;;;5013121;28;20080;-77
2023/12/14 08:35:03;;;;;;;18.35;12.10;;;;;;;;;;5030267;28;20030;-75
2023/12/14 08:37:29;;;;;;;17.70;10.68;;;;;;;;;;5031895;28;20037;-75
2023/12/14 08:39:56;;;;;;;15.27;10.23;;;;;;;;;;5031160;28;20510;-76
2023/12/14 08:42:22;;;;;;;20.70;10.18;;;;;;;;;;5032096;28;20049;-76
2023/12/14 08:44:49;;;;;;;19.25;10.80;;;;;;;;;;5031141;28;20033;-75
2023/12/14 08:47:15;;;;;;;21.20;11.38;;;;;;;;;;5031009;28;20072;-76
2023/12/14 08:49:41;;;;;;;16.65;11.00;;;;;;;;;;5012535;28;20042;-77
2023/12/14 08:52:08;;;;;;;13.57;10.48;;;;;;;;;;5031319;28;20040;-77
2023/12/14 08:54:34;;;;;;;13.70;9.63;;;;;;;;;;5033866;28;20049;-77
2023/12/14 08:57:01;;;;;;;16.35;10.05;;;;;;;;;;5034202;28;20041;-76
2023/12/14 08:59:27;;;;;;;16.17;10.30;;;;;;;;;;5052138;28;20039;-76
2023/12/14 09:01:53;;;;;;;12.73;9.20;;;;;;;;;;5033571;28;20033;-77
2023/12/14 09:04:20;;;;;;;13.43;9.00;;;;;;;;;;5014062;28;20037;-76
2023/12/14 09:06:47;;;;;;;15.18;8.75;;;;;;;;;;5031743;28;20038;-79
2023/12/14 09:09:13;;;;;;;12.70;8.98;;;;;;;;;;5014376;28;20322;-77
2023/12/14 09:11:40;;;;;;;17.20;9.95;;;;;;;;;;5029779;28;20112;-76
2023/12/14 09:14:06;;;;;;;13.60;9.82;;;;;;;;;;5030399;28;20064;-76
2023/12/14 09:16:32;;;;;;;13.57;8.57;;;;;;;;;;5029619;28;20045;-76
2023/12/14 09:18:58;;;;;;;10.20;7.82;;;;;;;;;;5030833;28;20117;-76
2023/12/14 09:21:25;;;;;;;14.70;9.25;;;;;;;;;;5031165;28;20041;-76
2023/12/14 09:23:53;;;;;;;12.40;8.00;;;;;;;;;;5015478;28;20025;-76
2023/12/14 09:26:19;;;;;;;19.70;8.15;;;;;;;;;;5016250;28;20033;-76
2023/12/14 09:28:45;;;;;;;12.15;7.43;;;;;;;;;;5012300;28;20040;-77
2023/12/14 09:31:12;;;;;;;12.15;8.98;;;;;;;;;;5028858;28;20041;-76
2023/12/14 09:33:38;;;;;;;14.07;9.68;;;;;;;;;;5024756;28;20037;-76
2023/12/14 09:36:04;;;;;;;14.38;9.05;;;;;;;;;;5019589;28;20518;-76
2023/12/14 09:38:30;;;;;;;9.85;6.90;;;;;;;;;;5010512;28;20435;-76
2023/12/14 09:40:58;;;;;;;14.48;8.32;;;;;;;;;;4977552;28;20077;-76
2023/12/14 09:43:25;;;;;;;12.35;7.07;;;;;;;;;;5015796;28;20034;-75
2023/12/14 09:45:51;;;;;;;14.13;8.25;;;;;;;;;;5029175;28;20541;-76
2023/12/14 09:48:18;;;;;;;12.30;7.78;;;;;;;;;;5028843;28;20037;-76
2023/12/14 09:50:44;;;;;;;8.30;6.25;;;;;;;;;;5030163;28;20037;-75
2023/12/14 09:53:10;;;;;;;11.23;6.88;;;;;;;;;;5029435;28;20037;-76
2023/12/14 09:55:36;;;;;;;7.68;5.47;;;;;;;;;;5030440;28;20091;-74
2023/12/14 09:58:03;;;;;;;12.70;6.55;;;;;;;;;;5030771;28;20034;-74
2023/12/14 10:00:37;;;;;;;9.75;6.38;;;;;;;;;;5028830;28;20071;-73
2023/12/14 10:03:19;;;;;;;10.25;5.88;;;;;;;;;;5010936;28;20068;-74
2023/12/14 10:05:45;;;;;;;9.70;5.68;;;;;;;;;;5028853;28;20029;-74
2023/12/14 10:08:11;;;;;;;8.88;6.05;;;;;;;;;;5011440;28;20044;-75
2023/12/14 10:10:37;;;;;;;8.98;5.90;;;;;;;;;;4994231;28;20044;-75
2023/12/14 10:13:04;;;;;;;11.82;6.43;;;;;;;;;;5028001;28;20025;-74
2023/12/14 10:15:30;;;;;;;9.35;5.50;;;;;;;;;;5028613;28;20041;-73
2023/12/14 10:17:57;;;;;;;8.70;5.95;;;;;;;;;;5028671;28;20032;-75
2023/12/14 10:20:26;;;;;;;9.15;5.68;;;;;;;;;;5028022;28;20037;-74
2023/12/14 10:22:52;;;;;;;11.75;6.95;;;;;;;;;;5027341;28;20033;-74
2023/12/14 10:25:19;;;;;;;11.55;6.50;;;;;;;;;;5011682;28;20021;-74
2023/12/14 10:27:48;;;;;;;9.98;6.13;;;;;;;;;;5017834;28;20086;-75
2023/12/14 10:30:15;;;;;;;10.35;6.65;;;;;;;;;;5029740;28;20387;-73
2023/12/14 10:32:41;;;;;;;13.68;6.07;;;;;;;;;;5026501;28;20041;-74
2023/12/14 10:35:08;;;;;;;17.27;6.95;;;;;;;;;;5026248;28;20494;-73
2023/12/14 10:37:38;;;;;;;9.32;6.07;;;;;;;;;;5029690;28;20112;-73
2023/12/14 10:40:07;;;;;;;12.00;6.68;;;;;;;;;;5010341;28;20422;-74
2023/12/14 10:42:36;;;;;;;11.40;6.88;;;;;;;;;;5026537;28;20030;-74
2023/12/14 10:45:03;;;;;;;11.07;7.68;;;;;;;;;;5011958;28;20021;-73
2023/12/14 10:47:30;;;;;;;13.48;7.38;;;;;;;;;;5029019;28;20037;-73
2023/12/14 10:49:57;;;;;;;13.05;6.80;;;;;;;;;;5009449;28;20033;-73
2023/12/14 10:52:23;;;;;;;12.70;7.05;;;;;;;;;;5010108;28;20041;-73
2023/12/14 10:54:53;;;;;;;12.82;8.52;;;;;;;;;;5027362;28;20356;-74
2023/12/14 10:57:19;;;;;;;12.55;8.48;;;;;;;;;;5008204;28;20119;-74
2023/12/14 10:59:49;;;;;;;15.35;9.13;;;;;;;;;;5023440;28;20045;-73
2023/12/14 11:02:15;;;;;;;16.38;7.45;;;;;;;;;;5028018;28;20025;-74
2023/12/14 11:05:01;;;;;;;14.65;8.13;;;;;;;;;;5024780;28;20029;-75
2023/12/14 11:07:45;;;;;;;11.32;7.65;;;;;;;;;;5027719;28;20171;-76
2023/12/14 11:10:12;;;;;;;10.38;7.82;;;;;;;;;;5027764;28;20033;-76
2023/12/14 11:12:51;;;;;;;13.45;7.30;;;;;;;;;;5028045;28;20033;-75
2023/12/14 11:15:19;;;;;;;11.82;7.00;;;;;;;;;;5025500;28;20612;-76
2023/12/14 11:18:05;;;;;;;11.20;6.93;;;;;;;;;;5028266;28;20033;-78
2023/12/14 11:20:31;;;;;;;11.52;7.18;;;;;;;;;;5028863;28;20038;-78
2023/12/14 11:23:08;;;;;;;11.07;7.65;;;;;;;;;;5027266;28;20098;-76
2023/12/14 11:25:35;;;;;;;10.65;7.07;;;;;;;;;;5028829;28;20057;-77
2023/12/14 11:28:05;;;;;;;14.48;7.03;;;;;;;;;;5029615;28;20497;-76
2023/12/14 11:30:31;;;;;;;11.27;6.35;;;;;;;;;;5027895;28;20037;-76
2023/12/14 11:32:58;;;;;;;10.63;6.32;;;;;;;;;;5026653;28;20041;-76
2023/12/14 11:35:24;;;;;;;8.20;6.30;;;;;;;;;;5010872;28;20125;-75
2023/12/14 11:37:51;;;;;;;9.98;6.10;;;;;;;;;;5029284;28;20103;-77
2023/12/14 11:40:22;;;;;;;9.55;6.70;;;;;;;;;;5028924;28;20061;-76
2023/12/14 11:43:08;;;;;;;12.10;7.10;;;;;;;;;;5029058;28;20349;-76
2023/12/14 11:45:43;;;;;;;8.43;5.38;;;;;;;;;;5028064;28;20075;-75
2023/12/14 11:48:11;;;;;;;9.45;6.07;;;;;;;;;;5025689;28;20037;-76
2023/12/14 11:50:42;;;;;;;8.38;6.25;;;;;;;;;;5028596;28;20037;-76
2023/12/14 11:53:09;;;;;;;10.38;6.80;;;;;;;;;;5028003;28;20077;-75
2023/12/14 11:55:36;;;;;;;10.88;6.38;;;;;;;;;;5022345;28;20038;-77
2023/12/14 11:58:03;;;;;;;10.90;6.82;;;;;;;;;;5028104;28;20048;-77
2023/12/14 12:00:30;;;;;;;9.48;6.47;;;;;;;;;;5009669;28;20509;-76
2023/12/14 12:03:13;;;;;;;14.25;7.05;;;;;;;;;;5030453;28;20036;-76
2023/12/14 12:05:43;;;;;;;10.30;6.35;;;;;;;;;;5028515;28;20048;-77
2023/12/14 12:08:09;;;;;;;10.68;6.70;;;;;;;;;;5031381;28;20030;-76
2023/12/14 12:10:36;;;;;;;10.75;7.50;;;;;;;;;;5013340;28;20037;-76
2023/12/14 12:13:04;;;;;;;12.10;7.10;;;;;;;;;;5031556;28;20041;-78
2023/12/14 12:15:31;;;;;;;12.15;7.10;;;;;;;;;;5012242;28;20133;-76
2023/12/14 12:17:58;;;;;;;15.82;7.18;;;;;;;;;;5031037;28;20037;-76
2023/12/14 12:20:25;;;;;;;13.25;6.38;;;;;;;;;;5012581;28;20105;-77
2023/12/14 12:22:51;;;;;;;11.70;7.25;;;;;;;;;;5031296;28;20045;-77
2023/12/14 12:25:18;;;;;;;12.40;7.05;;;;;;;;;;5031380;28;20100;-78
2023/12/14 12:27:45;;;;;;;12.75;7.57;;;;;;;;;;5028786;28;20036;-78
2023/12/14 12:30:12;;;;;;;14.63;10.00;;;;;;;;;;5031988;28;20045;-77
2023/12/14 12:32:39;;;;;;;18.15;11.23;;;;;;;;;;5035871;28;20038;-77
2023/12/14 12:35:05;;;;;;;17.20;11.27;;;;;;;;;;5036008;28;20038;-75
2023/12/14 12:37:31;;;;;;;18.50;12.32;;;;;;;;;;5014232;28;20021;-77
2023/12/14 12:39:58;;;;;;;17.90;12.55;;;;;;;;;;5013031;28;20045;-76
2023/12/14 12:42:25;;;;;;;18.83;11.38;;;;;;;;;;5025196;28;20082;-77
2023/12/14 12:44:52;;;;;;;16.27;11.27;;;;;;;;;;5030223;28;20124;-76
2023/12/14 12:47:18;;;;;;;17.73;11.10;;;;;;;;;;5029813;28;20087;-76
2023/12/14 12:49:44;;;;;;;17.02;10.48;;;;;;;;;;5029798;28;20128;-76
2023/12/14 12:52:10;;;;;;;15.02;10.43;;;;;;;;;;5031214;28;20025;-76
2023/12/14 12:54:37;;;;;;;18.17;11.23;;;;;;;;;;5029074;28;20060;-77
2023/12/14 12:57:03;;;;;;;19.30;11.18;;;;;;;;;;5010430;28;20037;-77
2023/12/14 12:59:29;;;;;;;17.65;10.95;;;;;;;;;;5010733;28;20057;-77
2023/12/14 13:01:55;;;;;;;20.58;10.48;;;;;;;;;;5027832;28;20098;-76
2023/12/14 13:04:22;;;;;;;16.83;10.48;;;;;;;;;;5029504;28;20041;-76
2023/12/14 13:06:49;;;;;;;18.85;11.73;;;;;;;;;;5030773;28;20353;-76
2023/12/14 13:09:16;;;;;;;19.48;11.68;;;;;;;;;;5012988;28;20025;-78
2023/12/14 13:11:43;;;;;;;16.98;11.52;;;;;;;;;;5031064;28;20037;-77
2023/12/14 13:14:10;;;;;;;22.80;11.38;;;;;;;;;;5029772;28;20123;-78
2023/12/14 13:16:36;;;;;;;15.43;10.88;;;;;;;;;;5029319;28;20029;-76
2023/12/14 13:19:03;;;;;;;16.40;11.15;;;;;;;;;;5029886;28;20033;-76
2023/12/14 13:21:36;;;;;;;17.35;11.43;;;;;;;;;;5029370;28;20106;-77
2023/12/14 13:24:03;;;;;;;22.58;12.95;;;;;;;;;;5018129;28;20083;-76
2023/12/14 13:26:30;;;;;;;16.65;11.27;;;;;;;;;;5013226;28;20021;-76
2023/12/14 13:28:56;;;;;;;15.38;11.27;;;;;;;;;;5011463;28;20068;-76
2023/12/14 13:31:22;;;;;;;20.02;13.13;;;;;;;;;;5009944;28;20140;-76
2023/12/14 13:33:50;;;;;;;21.38;13.90;;;;;;;;;;5029970;28;20258;-76
2023/12/14 13:36:16;;;;;;;25.30;14.30;;;;;;;;;;5030014;28;20428;-76
2023/12/14 13:38:43;;;;;;;19.63;12.82;;;;;;;;;;5013083;28;20069;-77
2023/12/14 13:41:09;;;;;;;19.80;13.43;;;;;;;;;;5014318;28;20024;-77
2023/12/14 13:43:35;;;;;;;20.10;14.40;;;;;;;;;;5029603;28;20036;-76
2023/12/14 13:46:02;;;;;;;21.58;14.52;;;;;;;;;;5030704;28;20482;-77
2023/12/14 13:48:28;;;;;;;20.40;13.60;;;;;;;;;;5012750;28;20168;-76
2023/12/14 13:50:55;;;;;;;21.95;13.73;;;;;;;;;;5015099;28;20029;-76
2023/12/14 13:53:21;;;;;;;21.88;13.43;;;;;;;;;;5009616;28;20125;-76
2023/12/14 13:55:48;;;;;;;21.02;13.52;;;;;;;;;;4991781;28;20026;-77
2023/12/14 13:58:15;;;;;;;20.15;13.68;;;;;;;;;;5004238;28;20022;-78
2023/12/14 14:00:41;;;;;;;18.60;12.88;;;;;;;;;;5004467;28;20045;-77
2023/12/14 14:03:07;;;;;;;19.52;13.30;;;;;;;;;;5009160;28;20053;-76
2023/12/14 14:05:34;;;;;;;17.23;11.73;;;;;;;;;;5011330;28;20022;-76
2023/12/14 14:08:01;;;;;;;18.20;11.60;;;;;;;;;;5011104;28;20080;-76
2023/12/14 14:10:27;;;;;;;17.85;11.40;;;;;;;;;;5008990;28;20152;-77
2023/12/14 14:12:54;;;;;;;22.38;12.05;;;;;;;;;;5009190;28;20453;-75
2023/12/14 14:15:21;;;;;;;18.05;12.07;;;;;;;;;;5008604;28;20037;-76
2023/12/14 14:17:51;;;;;;;19.02;12.10;;;;;;;;;;5010527;28;20164;-76
2023/12/14 14:20:17;;;;;;;21.10;13.40;;;;;;;;;;5009178;28;20457;-77